Storm Events Database

Event Details

Event Thunderstorm Wind
Magnitude 74 kts.
State KENTUCKY
County/Area NICHOLAS
WFO LMK
Begin Date 01/29/2008 21:50:00 EST-5
Begin Range 2
Begin Azimuth SW
Begin Location ELLISVILLE
Begin Lat/Lon 38.36/-84.04
End Date 01/29/2008 21:50:00 EST-5
End Range 1
End Azimuth ESE
End Location OAKLAND MILLS
End Lat/Lon 38.39/-84.02
Deaths Direct/Indirect 0/0 (fatality details below, when available...)
Injuries Direct/Indirect 0/0
Property Damage 250.00K
Crop Damage 0.00K
Episode Narrative A powerful cold front set off a lengthy squall line that crossed all of central Kentucky on the evening of January 29. A large number of locations had 60 to as much as 100 mph winds, causing extensive property damage. There were also a few small tornado spin-ups.
Event Narrative Thunderstorm winds damaged about twelve homes along U.S. Highway 68. A barn was heavily damaged, and several outbuildings were destroyed. Numerous trees were downed.


All events for this episode:

Location County/Zone St. Date Time T.Z. Type Mag Dth Inj PrD CrD
Totals: 0 0 5.786M 1.075M
MORGANTOWN BUTLER CO. KY 01/29/2008 18:30 CST-6 Thunderstorm Wind 60 kts. EG 0 0 0.00K 0.00K
BEE SPG EDMONSON CO. KY 01/29/2008 18:30 CST-6 Thunderstorm Wind 60 kts. EG 0 0 0.00K 0.00K
STEPHENSPORT BRECKINRIDGE CO. KY 01/29/2008 18:35 CST-6 Thunderstorm Wind 60 kts. EG 0 0 0.00K 0.00K
HAWESVILLE HANCOCK CO. KY 01/29/2008 18:39 CST-6 Thunderstorm Wind 60 kts. EG 0 0 5.00K 0.00K
CENTERTOWN OHIO CO. KY 01/29/2008 18:44 CST-6 Thunderstorm Wind 56 kts. EG 0 0 50.00K 0.00K
RUSSELLVILLE LOGAN CO. KY 01/29/2008 18:52 CST-6 Thunderstorm Wind 50 kts. EG 0 0 0.00K 0.00K
HARDINSBURG ARPT BRECKINRIDGE CO. KY 01/29/2008 18:56 CST-6 Thunderstorm Wind 60 kts. EG 0 0 0.00K 0.00K
KINGSWOOD BRECKINRIDGE CO. KY 01/29/2008 19:02 CST-6 Thunderstorm Wind 60 kts. EG 0 0 0.00K 0.00K
MEMPHIS JCT WARREN CO. KY 01/29/2008 19:06 CST-6 Thunderstorm Wind 70 kts. EG 0 0 200.00K 0.00K
GREENWOOD WARREN CO. KY 01/29/2008 19:10 CST-6 Thunderstorm Wind 65 kts. EG 0 0 5.00K 0.00K
MIDDLETON SIMPSON CO. KY 01/29/2008 19:10 CST-6 Thunderstorm Wind 60 kts. EG 0 0 0.00K 0.00K
MT HERMAN MONROE CO. KY 01/29/2008 19:10 CST-6 Thunderstorm Wind 65 kts. EG 0 0 150.00K 1.000M
CUSTER BRECKINRIDGE CO. KY 01/29/2008 19:10 CST-6 Hail 0.75 in. 0 0 0.00K 0.00K
BLUE LEVEL WARREN CO. KY 01/29/2008 19:15 CST-6 Thunderstorm Wind 65 kts. EG 0 0 20.00K 0.00K
BROWNSVILLE EDMONSON CO. KY 01/29/2008 19:20 CST-6 Thunderstorm Wind 60 kts. EG 0 0 0.00K 0.00K
SCOTTSVILLE ALLEN CO. KY 01/29/2008 19:20 CST-6 Thunderstorm Wind 65 kts. EG 0 0 150.00K 0.00K
MT AERIAL ALLEN CO. KY 01/29/2008 19:30 CST-6 Thunderstorm Wind 60 kts. EG 0 0 0.00K 0.00K
MORGANTOWN BUTLER CO. KY 01/29/2008 19:30 CST-6 Thunderstorm Wind 60 kts. EG 0 0 0.00K 0.00K
ADAIRVILLE LOGAN CO. KY 01/29/2008 19:30 CST-6 Thunderstorm Wind 60 kts. EG 0 0 0.00K 0.00K
CAVE CITY BARREN CO. KY 01/29/2008 19:32 CST-6 Thunderstorm Wind 80 kts. EG 0 0 250.00K 0.00K
CEDAR SPGS ALLEN CO. KY 01/29/2008 19:32 CST-6 Thunderstorm Wind 80 kts. EG 0 0 80.00K 0.00K
WOLF CREEK MEADE CO. KY 01/29/2008 19:38 EST-5 Thunderstorm Wind 65 kts. EG 0 0 200.00K 75.00K
SHELBYVILLE SHELBY CO. KY 01/29/2008 20:00 EST-5 Thunderstorm Wind 60 kts. EG 0 0 0.00K 0.00K
EDMONTON METCALFE CO. KY 01/29/2008 20:00 CST-6 Thunderstorm Wind 70 kts. EG 0 0 100.00K 0.00K
LOUISVILLE JEFFERSON CO. KY 01/29/2008 20:00 EST-5 Tornado EF1 0 0 3.000M 0.00K
GREENWOOD WARREN CO. KY 01/29/2008 20:03 CST-6 Thunderstorm Wind 70 kts. EG 0 0 30.00K 0.00K
HADLEY WARREN CO. KY 01/29/2008 20:04 CST-6 Thunderstorm Wind 65 kts. EG 0 0 0.00K 0.00K
TOMPKINSVILLE MONROE CO. KY 01/29/2008 20:04 CST-6 Thunderstorm Wind 70 kts. EG 0 0 0.00K 0.00K
FOUNTAIN RUN MONROE CO. KY 01/29/2008 20:05 CST-6 Thunderstorm Wind 60 kts. EG 0 0 150.00K 0.00K
MILLTOWN ADAIR CO. KY 01/29/2008 20:10 CST-6 Thunderstorm Wind 65 kts. EG 0 0 50.00K 0.00K
MILTON TRIMBLE CO. KY 01/29/2008 20:10 EST-5 Thunderstorm Wind 56 kts. EG 0 0 300.00K 0.00K
PAYNEVILLE MEADE CO. KY 01/29/2008 20:15 EST-5 Thunderstorm Wind 60 kts. EG 0 0 0.00K 0.00K
MARROWBONE CUMBERLAND CO. KY 01/29/2008 20:15 CST-6 Thunderstorm Wind 60 kts. EG 0 0 0.00K 0.00K
PEWEE VLY OLDHAM CO. KY 01/29/2008 20:19 EST-5 Thunderstorm Wind 60 kts. EG 0 0 0.00K 0.00K
MULDRAUGH MEADE CO. KY 01/29/2008 20:20 EST-5 Thunderstorm Wind 60 kts. EG 0 0 0.00K 0.00K
RUSSELL SPGS RUSSELL CO. KY 01/29/2008 20:25 CST-6 Thunderstorm Wind 75 kts. EG 0 0 100.00K 0.00K
INDIAN HILLS JEFFERSON CO. KY 01/29/2008 20:30 EST-5 Thunderstorm Wind 65 kts. EG 0 0 30.00K 0.00K
BOSTON NELSON CO. KY 01/29/2008 20:42 EST-5 Thunderstorm Wind 60 kts. EG 0 0 0.00K 0.00K
BUFFALO LARUE CO. KY 01/29/2008 20:45 EST-5 Thunderstorm Wind 56 kts. EG 0 0 150.00K 0.00K
MAC TAYLOR CO. KY 01/29/2008 21:00 EST-5 Thunderstorm Wind 70 kts. EG 0 0 200.00K 0.00K
LAWRENCEBURG ANDERSON CO. KY 01/29/2008 21:05 EST-5 Thunderstorm Wind 52 kts. EG 0 0 0.00K 0.00K
MAC TAYLOR CO. KY 01/29/2008 21:07 EST-5 Thunderstorm Wind 61 kts. EG 0 0 100.00K 0.00K
WATERFORD SPENCER CO. KY 01/29/2008 21:07 EST-5 Thunderstorm Wind 60 kts. EG 0 0 0.00K 0.00K
STRINGTOWN MERCER CO. KY 01/29/2008 21:10 EST-5 Thunderstorm Wind 60 kts. EG 0 0 0.00K 0.00K
FRANKFORT FRANKLIN CO. KY 01/29/2008 21:10 EST-5 Thunderstorm Wind 60 kts. EG 0 0 0.00K 0.00K
GRAEFENBURG SHELBY CO. KY 01/29/2008 21:11 EST-5 Thunderstorm Wind 60 kts. EG 0 0 0.00K 0.00K
SHAKERTOWN MERCER CO. KY 01/29/2008 21:15 EST-5 Thunderstorm Wind 70 kts. EG 0 0 200.00K 0.00K
BARDSTOWN NELSON CO. KY 01/29/2008 21:15 EST-5 Thunderstorm Wind 60 kts. EG 0 0 5.00K 0.00K
PERRYVILLE BOYLE CO. KY 01/29/2008 21:19 EST-5 Thunderstorm Wind 60 kts. EG 0 0 0.00K 0.00K
CLEMENTSVILLE CASEY CO. KY 01/29/2008 21:20 EST-5 Thunderstorm Wind 56 kts. EG 0 0 1.00K 0.00K
HARRISON CO ARPT HARRISON CO. KY 01/29/2008 21:28 EST-5 Thunderstorm Wind 60 kts. EG 0 0 0.00K 0.00K
LANCASTER GARRARD CO. KY 01/29/2008 21:30 EST-5 Hail 0.75 in. 0 0 0.00K 0.00K
WILMORE JESSAMINE CO. KY 01/29/2008 21:30 EST-5 Thunderstorm Wind 60 kts. EG 0 0 0.00K 0.00K
MARCELLUS GARRARD CO. KY 01/29/2008 21:30 EST-5 Thunderstorm Wind 60 kts. EG 0 0 0.00K 0.00K
PARIS BOURBON CO. KY 01/29/2008 21:35 EST-5 Thunderstorm Wind 60 kts. EG 0 0 0.00K 0.00K
GEORGETOWN SCOTT CO. KY 01/29/2008 21:35 EST-5 Hail 0.88 in. 0 0 0.00K 0.00K
RICHMOND MADISON CO. KY 01/29/2008 21:50 EST-5 Thunderstorm Wind 60 kts. EG 0 0 10.00K 0.00K
ELLISVILLE NICHOLAS CO. KY 01/29/2008 21:50 EST-5 Thunderstorm Wind 74 kts. EG 0 0 250.00K 0.00K
LEXINGTON FAYETTE CO. KY 01/29/2008 21:55 EST-5 Thunderstorm Wind 60 kts. EG 0 0 0.00K 0.00K
Totals: 0 0 5.786M 1.075M